Time;durP1;ratioP1;P1;durP2;ratioP2;P2;SDS_P1;SDS_P2;PMS_P1;PMS_P2;Temp;Humidity;BMP_temperature;BMP_pressure;BME280_temperature;BME280_humidity;BME280_pressure;Samples;Min_cycle;Max_cycle;Signal;HPM_P1;HPM_P2
2021/11/02 00:01:39;;;;;;;4.93;2.50;;;9.00;99.90;;;;;;5082107;28;20250;-70
2021/11/02 00:04:09;;;;;;;5.60;2.67;;;9.00;99.90;;;;;;5082234;28;20231;-70
2021/11/02 00:06:38;;;;;;;4.27;2.53;;;9.00;99.90;;;;;;5082087;28;20226;-70
2021/11/02 00:09:13;;;;;;;7.03;2.80;;;9.00;99.90;;;;;;5072639;28;20232;-70
2021/11/02 00:11:42;;;;;;;5.77;2.53;;;8.90;99.90;;;;;;5067983;28;20259;-69
2021/11/02 00:14:14;;;;;;;5.50;2.70;;;8.90;99.90;;;;;;5068242;28;20231;-68
2021/11/02 00:16:44;;;;;;;3.97;2.30;;;8.90;99.90;;;;;;5068228;28;20292;-70
2021/11/02 00:19:14;;;;;;;4.03;2.50;;;8.90;99.90;;;;;;5065844;28;20238;-70
2021/11/02 00:21:46;;;;;;;4.13;2.40;;;8.80;99.90;;;;;;5068077;28;20517;-70
2021/11/02 00:24:17;;;;;;;7.13;2.47;;;8.80;99.90;;;;;;5067884;28;20916;-69
2021/11/02 00:26:45;;;;;;;4.67;2.23;;;8.90;99.90;;;;;;5067992;28;20617;-69
2021/11/02 00:29:13;;;;;;;4.50;2.30;;;8.90;99.90;;;;;;5066103;28;20274;-70
2021/11/02 00:31:41;;;;;;;5.13;2.60;;;8.90;99.90;;;;;;5068337;28;20255;-70
2021/11/02 00:34:11;;;;;;;3.93;2.30;;;8.90;99.90;;;;;;5067985;28;20260;-69
2021/11/02 00:36:40;;;;;;;4.03;2.20;;;8.90;99.90;;;;;;5066066;28;20261;-69
2021/11/02 00:39:08;;;;;;;4.50;2.67;;;8.90;99.90;;;;;;5065083;28;20231;-70
2021/11/02 00:41:37;;;;;;;3.37;2.90;;;8.80;99.90;;;;;;5067802;28;20501;-70
2021/11/02 00:44:07;;;;;;;10.43;3.30;;;8.80;99.90;;;;;;5067604;28;20270;-70
2021/11/02 00:46:36;;;;;;;5.00;3.10;;;8.70;99.90;;;;;;5066051;28;20235;-70
2021/11/02 00:49:07;;;;;;;7.37;2.90;;;8.70;99.90;;;;;;5066024;28;20235;-70
2021/11/02 00:51:35;;;;;;;5.57;2.87;;;8.70;99.90;;;;;;5065598;28;20261;-70
2021/11/02 00:54:05;;;;;;;8.60;3.20;;;8.80;99.90;;;;;;5063897;28;20696;-70
2021/11/02 00:56:34;;;;;;;5.17;2.80;;;8.70;99.90;;;;;;5059747;28;20597;-70
2021/11/02 00:59:02;;;;;;;4.63;2.90;;;8.70;99.90;;;;;;5068280;28;20243;-70
2021/11/02 01:01:31;;;;;;;6.50;3.03;;;8.70;99.90;;;;;;5059177;28;20820;-69
2021/11/02 01:04:04;;;;;;;3.53;2.47;;;8.70;99.90;;;;;;5068449;28;20367;-69
2021/11/02 01:06:32;;;;;;;5.63;2.83;;;8.70;99.90;;;;;;5067984;28;20636;-71
2021/11/02 01:09:00;;;;;;;3.50;2.50;;;8.80;99.90;;;;;;5064459;28;20231;-69
2021/11/02 01:11:30;;;;;;;4.23;2.70;;;8.70;99.90;;;;;;5068288;28;20246;-70
2021/11/02 01:13:58;;;;;;;4.10;2.40;;;8.70;99.90;;;;;;5067908;28;20805;-70
2021/11/02 01:16:28;;;;;;;3.97;2.30;;;8.60;99.90;;;;;;5067082;28;20240;-70
2021/11/02 01:18:57;;;;;;;5.73;2.90;;;8.70;99.90;;;;;;5067945;28;20231;-69
2021/11/02 01:21:25;;;;;;;3.90;2.60;;;8.60;99.90;;;;;;5066699;28;20237;-70
2021/11/02 01:23:53;;;;;;;4.23;2.73;;;8.60;99.90;;;;;;5068697;28;20235;-70
2021/11/02 01:26:22;;;;;;;5.40;2.50;;;8.60;99.90;;;;;;5066956;28;20266;-70
2021/11/02 01:28:51;;;;;;;7.13;2.97;;;8.50;99.90;;;;;;5065528;28;20310;-69
2021/11/02 01:31:21;;;;;;;8.57;2.80;;;8.50;99.90;;;;;;5076973;28;20224;-69
2021/11/02 01:33:49;;;;;;;4.80;2.57;;;8.50;99.90;;;;;;5066549;28;20703;-70
2021/11/02 01:36:17;;;;;;;5.33;2.53;;;8.50;99.90;;;;;;5065992;28;20238;-70
2021/11/02 01:38:51;;;;;;;4.10;2.53;;;8.40;99.90;;;;;;5066207;28;20237;-70
2021/11/02 01:41:22;;;;;;;5.47;2.60;;;8.50;99.90;;;;;;5066171;28;20257;-70
2021/11/02 01:43:57;;;;;;;5.77;2.70;;;8.50;99.90;;;;;;5066964;28;20720;-70
2021/11/02 01:46:28;;;;;;;6.47;2.53;;;8.60;99.90;;;;;;5066360;28;20242;-70
2021/11/02 01:48:59;;;;;;;3.83;2.37;;;8.60;99.90;;;;;;5066008;28;20227;-69
2021/11/02 01:51:30;;;;;;;4.10;2.33;;;8.50;99.90;;;;;;5057422;28;20582;-69
2021/11/02 01:54:01;;;;;;;4.80;2.40;;;8.50;99.90;;;;;;5061761;28;20330;-70
2021/11/02 01:56:32;;;;;;;3.70;2.70;;;8.40;99.90;;;;;;5061899;28;20227;-70
2021/11/02 01:59:07;;;;;;;3.00;2.20;;;8.50;99.90;;;;;;5061983;28;20722;-69
2021/11/02 02:01:58;;;;;;;5.27;2.63;;;8.50;99.90;;;;;;5065659;28;20235;-70
2021/11/02 02:04:46;;;;;;;5.97;2.53;;;8.40;99.90;;;;;;5062868;28;20237;-70
2021/11/02 02:07:24;;;;;;;4.03;2.33;;;8.40;99.90;;;;;;5066250;28;20659;-70
2021/11/02 02:10:02;;;;;;;6.40;2.43;;;8.40;99.90;;;;;;5065249;28;20238;-69
2021/11/02 02:12:55;;;;;;;4.73;2.57;;;8.40;99.90;;;;;;5057562;28;20305;-70
2021/11/02 02:15:31;;;;;;;3.47;2.43;;;8.40;99.90;;;;;;5065432;28;20641;-70
2021/11/02 02:18:06;;;;;;;3.57;2.33;;;8.40;99.90;;;;;;5066730;28;20288;-70
2021/11/02 02:21:06;;;;;;;4.30;2.57;;;8.30;99.90;;;;;;5065157;28;20231;-70
2021/11/02 02:24:02;;;;;;;6.93;2.50;;;8.40;99.90;;;;;;5054957;28;20234;-70
2021/11/02 02:27:04;;;;;;;5.03;2.60;;;8.40;99.90;;;;;;5061670;28;20527;-70
2021/11/02 02:29:38;;;;;;;6.83;2.70;;;8.30;99.90;;;;;;5064896;28;20222;-70
2021/11/02 02:32:15;;;;;;;4.83;2.47;;;8.30;99.90;;;;;;5065237;28;20231;-70
2021/11/02 02:34:46;;;;;;;6.20;2.67;;;8.20;99.90;;;;;;5057726;28;20231;-67
2021/11/02 02:37:17;;;;;;;4.97;2.70;;;8.30;99.90;;;;;;5065356;28;20682;-69
2021/11/02 02:39:54;;;;;;;4.60;2.37;;;8.20;99.90;;;;;;5065415;28;20318;-69
2021/11/02 02:42:26;;;;;;;4.20;2.40;;;8.20;99.90;;;;;;5066772;28;20771;-70
2021/11/02 02:44:58;;;;;;;6.47;3.27;;;8.30;99.90;;;;;;5065831;28;20234;-70
2021/11/02 02:47:27;;;;;;;4.87;2.40;;;8.20;99.90;;;;;;5066378;28;20288;-68
2021/11/02 02:49:58;;;;;;;5.53;2.70;;;8.20;99.90;;;;;;5064789;28;20239;-70
2021/11/02 02:52:30;;;;;;;7.40;2.90;;;8.10;99.90;;;;;;5064758;28;20231;-69
2021/11/02 02:55:01;;;;;;;5.67;2.77;;;8.20;99.90;;;;;;5065706;28;20315;-69
2021/11/02 02:57:30;;;;;;;4.10;2.70;;;8.20;99.90;;;;;;5062518;28;20768;-69
2021/11/02 03:00:17;;;;;;;7.70;2.90;;;8.20;99.90;;;;;;5064503;28;20235;-70
2021/11/02 03:02:47;;;;;;;3.77;2.40;;;8.20;99.90;;;;;;5064699;28;20231;-70
2021/11/02 03:05:19;;;;;;;5.07;2.80;;;8.20;99.90;;;;;;5065080;28;20227;-70
2021/11/02 03:07:54;;;;;;;4.23;2.60;;;8.20;99.90;;;;;;5060042;28;20280;-70
2021/11/02 03:10:24;;;;;;;6.60;2.80;;;8.20;99.90;;;;;;5063490;28;20252;-69
2021/11/02 03:12:55;;;;;;;4.60;2.47;;;8.20;99.90;;;;;;5066451;28;20698;-68
2021/11/02 03:15:49;;;;;;;6.53;2.80;;;8.20;99.90;;;;;;5065289;28;20686;-68
2021/11/02 03:18:36;;;;;;;5.37;2.53;;;8.10;99.90;;;;;;5064199;28;20223;-70
2021/11/02 03:44:15;;;;;;;7.03;3.17;;;8.00;99.90;;;;;;5065402;28;20233;-70
2021/11/02 03:49:41;;;;;;;8.37;3.20;;;8.00;99.90;;;;;;5060358;28;20242;-68
2021/11/02 03:55:14;;;;;;;5.93;2.40;;;8.00;99.90;;;;;;5013088;28;20228;-69
2021/11/02 03:57:49;;;;;;;4.77;2.63;;;8.10;99.90;;;;;;5014372;28;20225;-69
2021/11/02 04:00:44;;;;;;;6.37;2.60;;;8.10;99.90;;;;;;5028817;28;20701;-70
2021/11/02 04:31:53;;;;;;;6.80;2.80;;;7.90;99.90;;;;;;5067184;28;20325;-70
2021/11/02 05:08:55;;;;;;;7.37;3.13;;;7.80;99.90;;;;;;5066226;28;20246;-70
2021/11/02 05:48:27;;;;;;;7.70;4.27;;;7.70;99.90;;;;;;5065468;28;20646;-69
2021/11/02 05:56:51;;;;;;;7.97;4.07;;;7.60;99.90;;;;;;5065275;28;20251;-70
2021/11/02 05:59:29;;;;;;;7.37;4.30;;;7.60;99.90;;;;;;5064403;28;20594;-70
2021/11/02 06:02:08;;;;;;;9.07;4.17;;;7.60;99.90;;;;;;5064994;28;20227;-68
2021/11/02 06:04:54;;;;;;;7.73;5.07;;;7.50;99.90;;;;;;5065413;28;20372;-70
2021/11/02 06:07:35;;;;;;;7.07;4.63;;;7.50;99.90;;;;;;5066514;28;20671;-70
2021/11/02 06:10:17;;;;;;;7.27;4.50;;;7.50;99.90;;;;;;5062574;28;20263;-68
2021/11/02 06:29:47;;;;;;;6.83;4.07;;;7.40;99.90;;;;;;5060716;28;20227;-69
2021/11/02 06:32:22;;;;;;;5.67;3.60;;;7.40;99.90;;;;;;5066614;28;20231;-69
2021/11/02 06:35:07;;;;;;;11.10;4.90;;;7.40;99.90;;;;;;5066477;28;20233;-69
2021/11/02 06:37:53;;;;;;;11.33;5.00;;;7.40;99.90;;;;;;5060476;28;20316;-72
2021/11/02 06:43:20;;;;;;;16.10;6.13;;;7.40;99.90;;;;;;5065939;28;20238;-72
2021/11/02 06:46:08;;;;;;;9.90;5.57;;;7.50;99.90;;;;;;5066353;28;20234;-72
2021/11/02 06:54:41;;;;;;;8.30;4.40;;;7.30;99.90;;;;;;5028705;28;20235;-72
2021/11/02 07:00:29;;;;;;;9.10;3.90;;;7.30;99.90;;;;;;5055043;28;20265;-70
2021/11/02 07:18:05;;;;;;;6.77;4.10;;;7.30;99.90;;;;;;4971606;28;20649;-69
2021/11/02 07:20:40;;;;;;;7.77;4.43;;;7.40;99.90;;;;;;5059140;28;20729;-70
2021/11/02 07:23:20;;;;;;;6.90;4.20;;;7.40;99.90;;;;;;5069160;28;20242;-69
2021/11/02 07:25:59;;;;;;;7.07;4.13;;;7.40;99.90;;;;;;5066035;28;20645;-70
2021/11/02 08:45:05;;;;;;;8.77;4.57;;;8.80;99.90;;;;;;5053199;28;20522;-65
2021/11/02 08:47:37;;;;;;;7.10;4.47;;;8.80;99.90;;;;;;5051511;28;20705;-64
2021/11/02 08:50:07;;;;;;;9.40;4.47;;;8.80;99.90;;;;;;5050711;28;21320;-65
2021/11/02 08:52:39;;;;;;;8.43;4.17;;;8.80;99.90;;;;;;5052697;28;20288;-65
2021/11/02 08:55:09;;;;;;;5.07;4.10;;;8.80;99.90;;;;;;5052609;28;20783;-65
2021/11/02 08:57:38;;;;;;;9.33;4.70;;;8.90;99.90;;;;;;5050121;28;20269;-64
2021/11/02 09:00:07;;;;;;;5.87;4.37;;;8.90;99.90;;;;;;5049474;28;20270;-64
2021/11/02 09:02:41;;;;;;;5.47;4.40;;;9.00;99.90;;;;;;5052513;28;20376;-64
2021/11/02 09:05:11;;;;;;;8.40;4.30;;;9.00;99.90;;;;;;5049006;28;20923;-65
2021/11/02 09:07:45;;;;;;;7.13;4.27;;;9.10;99.90;;;;;;5047372;28;20798;-64
2021/11/02 09:10:15;;;;;;;10.07;5.40;;;9.10;99.90;;;;;;5049513;28;20330;-65
2021/11/02 09:12:49;;;;;;;8.17;5.10;;;9.20;99.90;;;;;;5051364;28;20239;-65
2021/11/02 09:15:22;;;;;;;9.43;4.93;;;9.20;99.90;;;;;;5051463;28;20320;-65
2021/11/02 09:17:52;;;;;;;6.87;4.10;;;9.30;99.90;;;;;;5047860;28;20478;-65
2021/11/02 09:20:21;;;;;;;7.27;4.70;;;9.40;99.90;;;;;;5050875;28;20364;-65
2021/11/02 09:22:51;;;;;;;5.13;4.27;;;9.50;99.90;;;;;;5051049;28;20253;-65
2021/11/02 09:25:20;;;;;;;7.53;4.60;;;9.50;99.90;;;;;;5050048;28;21003;-65
2021/11/02 09:27:50;;;;;;;8.13;4.30;;;9.60;99.90;;;;;;5047076;28;20242;-65
2021/11/02 09:30:21;;;;;;;8.50;4.03;;;9.60;99.90;;;;;;5049831;28;20239;-65
2021/11/02 09:32:50;;;;;;;6.00;3.80;;;9.80;99.90;;;;;;5051614;28;20768;-65
2021/11/02 09:35:20;;;;;;;9.63;4.50;;;9.80;99.90;;;;;;5050687;28;20357;-65
2021/11/02 09:38:02;;;;;;;6.87;4.17;;;9.90;99.90;;;;;;5047510;28;21118;-65
2021/11/02 09:40:57;;;;;;;7.43;4.27;;;9.90;99.90;;;;;;5049703;28;20793;-65
2021/11/02 09:44:04;;;;;;;7.37;4.57;;;9.80;99.90;;;;;;5050233;28;20281;-65
2021/11/02 09:47:13;;;;;;;7.33;4.37;;;9.80;99.90;;;;;;5046866;28;20330;-65
2021/11/02 09:50:03;;;;;;;5.90;4.43;;;9.70;99.90;;;;;;5045261;28;20376;-65
2021/11/02 09:53:14;;;;;;;9.13;4.67;;;9.70;99.90;;;;;;5051499;28;20250;-65
2021/11/02 09:55:59;;;;;;;9.27;4.70;;;9.70;99.90;;;;;;5050063;28;20703;-65
2021/11/02 09:59:01;;;;;;;8.03;5.30;;;9.80;99.90;;;;;;5045579;28;20348;-65
2021/11/02 10:01:39;;;;;;;10.47;5.33;;;9.90;99.90;;;;;;5039645;28;20239;-65
2021/11/02 10:04:36;;;;;;;9.63;5.63;;;9.90;99.90;;;;;;5050466;28;20242;-65
2021/11/02 10:07:33;;;;;;;9.43;5.53;;;10.00;99.90;;;;;;5050651;28;20334;-65
2021/11/02 10:10:12;;;;;;;8.03;6.00;;;10.00;99.90;;;;;;5047624;28;20277;-65
2021/11/02 10:12:55;;;;;;;7.43;5.50;;;10.10;99.90;;;;;;5049994;28;20735;-65
2021/11/02 10:15:42;;;;;;;10.70;5.80;;;10.20;99.90;;;;;;5049871;28;20310;-65
2021/11/02 10:18:34;;;;;;;7.20;5.67;;;10.30;99.90;;;;;;5045142;28;21048;-65
2021/11/02 10:21:25;;;;;;;12.93;6.03;;;10.60;99.90;;;;;;5049780;28;20691;-65
2021/11/02 10:24:28;;;;;;;9.27;6.10;;;10.90;99.90;;;;;;5050112;28;20734;-65
2021/11/02 10:27:15;;;;;;;7.40;5.40;;;11.20;99.90;;;;;;5049939;28;20707;-66
2021/11/02 10:30:20;;;;;;;11.37;6.20;;;11.40;99.90;;;;;;5044913;28;20239;-65
2021/11/02 10:32:53;;;;;;;8.97;5.50;;;11.30;99.90;;;;;;5038724;28;20247;-65
2021/11/02 10:35:37;;;;;;;9.10;5.67;;;11.10;99.90;;;;;;5049718;28;20800;-65
2021/11/02 10:38:10;;;;;;;11.23;6.23;;;11.20;99.90;;;;;;5045393;28;20365;-66
2021/11/02 10:40:47;;;;;;;9.60;6.17;;;11.40;99.90;;;;;;5049165;28;21048;-65
2021/11/02 10:43:47;;;;;;;7.93;5.67;;;11.70;99.90;;;;;;5047736;28;20236;-66
2021/11/02 10:46:17;;;;;;;11.03;5.73;;;12.00;99.90;;;;;;5049527;28;20291;-65
2021/11/02 10:48:47;;;;;;;11.23;5.47;;;12.10;99.90;;;;;;5044624;28;20250;-66
2021/11/02 10:51:30;;;;;;;9.87;5.70;;;12.40;99.90;;;;;;5048812;28;20237;-66
2021/11/02 10:54:21;;;;;;;11.13;5.33;;;12.50;99.90;;;;;;5044063;28;20289;-66
2021/11/02 10:57:18;;;;;;;8.73;5.47;;;12.60;99.90;;;;;;5049952;28;20246;-66
2021/11/02 10:59:47;;;;;;;7.83;5.00;;;12.70;99.90;;;;;;5038631;28;20233;-66
2021/11/02 11:02:27;;;;;;;5.67;4.60;;;12.80;99.90;;;;;;5049399;28;20241;-66
2021/11/02 11:04:57;;;;;;;7.43;4.53;;;12.90;99.90;;;;;;5049707;28;20295;-66
2021/11/02 11:07:28;;;;;;;8.53;5.00;;;13.00;99.90;;;;;;5049141;28;20622;-65
2021/11/02 11:10:00;;;;;;;8.23;4.40;;;13.00;99.90;;;;;;5042712;28;20241;-66
2021/11/02 11:12:31;;;;;;;8.53;4.70;;;13.10;99.90;;;;;;5048440;28;20776;-66
2021/11/02 11:15:04;;;;;;;7.10;4.50;;;13.20;99.90;;;;;;5050465;28;20241;-66
2021/11/02 11:17:35;;;;;;;6.47;4.20;;;13.30;99.90;;;;;;5049348;28;20248;-66
2021/11/02 11:20:11;;;;;;;7.87;4.43;;;13.40;99.90;;;;;;5045706;28;20358;-66
2021/11/02 11:22:41;;;;;;;6.83;4.40;;;13.50;99.90;;;;;;5049481;28;20690;-66
2021/11/02 11:25:13;;;;;;;7.57;4.60;;;13.50;99.90;;;;;;5049837;28;20327;-66
2021/11/02 11:27:48;;;;;;;6.90;4.53;;;13.60;99.90;;;;;;5047405;28;20362;-66
2021/11/02 11:30:17;;;;;;;6.17;4.47;;;13.60;99.90;;;;;;5046825;28;20331;-66
2021/11/02 11:32:50;;;;;;;7.70;4.17;;;13.40;99.90;;;;;;5049094;28;20245;-66
2021/11/02 11:35:18;;;;;;;8.37;4.70;;;13.30;99.90;;;;;;5049310;28;20252;-66
2021/11/02 11:37:49;;;;;;;7.50;4.50;;;13.20;99.90;;;;;;5046691;28;20341;-66
2021/11/02 11:40:20;;;;;;;5.83;4.03;;;13.20;99.90;;;;;;5047141;28;20234;-66
2021/11/02 11:42:50;;;;;;;6.73;4.03;;;13.20;99.90;;;;;;5049281;28;20320;-67
2021/11/02 11:45:21;;;;;;;7.00;4.20;;;13.10;99.90;;;;;;5048470;28;20266;-66
2021/11/02 11:48:05;;;;;;;8.03;4.10;;;13.20;99.90;;;;;;5045830;28;20259;-66
2021/11/02 11:50:37;;;;;;;8.03;4.37;;;13.20;99.90;;;;;;5047127;28;20280;-66
2021/11/02 11:53:06;;;;;;;5.40;4.03;;;13.20;99.90;;;;;;5049465;28;20252;-66
2021/11/02 11:55:36;;;;;;;5.97;3.80;;;13.10;99.90;;;;;;5049775;28;20292;-66
2021/11/02 11:58:10;;;;;;;6.53;3.90;;;13.10;99.90;;;;;;5044283;28;20273;-66
2021/11/02 12:00:40;;;;;;;7.43;3.90;;;13.00;99.90;;;;;;5048024;28;20241;-66
2021/11/02 12:03:34;;;;;;;6.03;3.60;;;13.10;99.90;;;;;;5048665;28;20693;-67
2021/11/02 12:06:07;;;;;;;7.13;3.60;;;12.90;99.90;;;;;;5053812;28;20323;-66
2021/11/02 12:08:45;;;;;;;5.93;3.23;;;13.00;99.90;;;;;;5047024;28;20302;-66
2021/11/02 12:11:18;;;;;;;6.37;4.00;;;13.10;99.90;;;;;;5052321;28;20233;-66
2021/11/02 12:13:49;;;;;;;5.97;3.63;;;13.10;99.90;;;;;;5053210;28;20637;-66
2021/11/02 12:16:33;;;;;;;6.93;3.87;;;13.10;99.90;;;;;;5054273;28;20331;-66
2021/11/02 12:19:06;;;;;;;6.30;3.50;;;13.10;99.90;;;;;;5047667;28;20248;-66
2021/11/02 12:21:37;;;;;;;7.67;3.60;;;13.20;99.90;;;;;;5050998;28;20918;-66
2021/11/02 12:24:07;;;;;;;6.77;3.63;;;13.20;99.90;;;;;;5052199;28;20252;-66
2021/11/02 12:26:40;;;;;;;6.47;3.80;;;13.20;99.90;;;;;;5052730;28;20331;-65
2021/11/02 12:29:18;;;;;;;4.90;3.53;;;13.20;99.90;;;;;;5044219;28;20259;-66
2021/11/02 12:31:55;;;;;;;8.20;4.10;;;13.30;99.90;;;;;;5058007;28;20244;-65
2021/11/02 12:34:26;;;;;;;9.07;4.67;;;13.30;99.90;;;;;;5052371;28;20233;-66
2021/11/02 12:36:58;;;;;;;7.83;4.90;;;13.30;99.90;;;;;;5052331;28;20602;-66
2021/11/02 12:39:30;;;;;;;8.70;4.43;;;13.30;99.90;;;;;;5046031;28;20371;-66
2021/11/02 12:42:00;;;;;;;6.73;4.10;;;13.40;99.90;;;;;;5051430;28;20360;-66
2021/11/02 12:44:30;;;;;;;6.93;4.20;;;13.40;99.90;;;;;;5051518;28;20258;-66
2021/11/02 12:47:00;;;;;;;7.40;4.43;;;13.40;99.90;;;;;;5051647;28;20785;-66
2021/11/02 12:49:39;;;;;;;6.63;4.27;;;13.40;99.90;;;;;;5045526;28;20242;-66
2021/11/02 12:52:09;;;;;;;7.07;4.80;;;13.40;99.90;;;;;;5051112;28;20356;-66
2021/11/02 12:54:40;;;;;;;7.53;4.43;;;13.40;99.90;;;;;;5051913;28;20300;-66
2021/11/02 12:57:12;;;;;;;8.20;4.40;;;13.30;99.90;;;;;;5050158;28;20332;-66
2021/11/02 12:59:47;;;;;;;7.97;4.53;;;13.30;99.90;;;;;;5046098;28;20330;-67
2021/11/02 13:02:22;;;;;;;8.60;4.53;;;13.30;99.90;;;;;;5063671;28;20701;-66
2021/11/02 13:04:58;;;;;;;5.87;4.47;;;13.30;99.90;;;;;;5061777;28;21002;-66
2021/11/02 13:07:28;;;;;;;7.43;4.17;;;13.30;99.90;;;;;;5063737;28;20263;-65
2021/11/02 13:09:57;;;;;;;8.50;4.20;;;13.20;99.90;;;;;;5065297;28;20245;-66
2021/11/02 13:12:27;;;;;;;8.17;4.47;;;13.10;99.90;;;;;;5064782;28;20238;-66
2021/11/02 13:15:04;;;;;;;7.20;4.50;;;13.10;99.90;;;;;;5065324;28;20249;-67
2021/11/02 13:17:43;;;;;;;6.43;4.00;;;13.00;99.90;;;;;;5065308;28;20324;-68
2021/11/02 13:20:14;;;;;;;9.13;4.57;;;13.00;99.90;;;;;;5063811;28;20245;-68
2021/11/02 13:22:53;;;;;;;8.02;4.80;;;12.90;99.90;;;;;;5065185;28;20482;-64
2021/11/02 13:25:35;;;;;;;6.43;4.30;;;12.90;99.90;;;;;;5065519;28;20239;-67
2021/11/02 13:28:04;;;;;;;6.13;4.10;;;12.90;99.90;;;;;;5065524;28;20613;-67
2021/11/02 13:30:34;;;;;;;7.73;4.60;;;12.90;99.90;;;;;;5065861;28;20244;-67
2021/11/02 13:33:09;;;;;;;7.73;4.03;;;13.00;99.90;;;;;;5066034;28;20292;-67
2021/11/02 13:35:50;;;;;;;6.63;4.00;;;13.00;99.90;;;;;;5064428;28;20321;-66
2021/11/02 13:38:29;;;;;;;8.90;4.13;;;13.00;99.90;;;;;;5065090;28;20232;-67
2021/11/02 13:41:01;;;;;;;6.13;3.50;;;12.90;99.90;;;;;;5063110;28;20704;-67
2021/11/02 13:43:31;;;;;;;5.97;3.70;;;12.80;99.90;;;;;;5059252;28;20276;-67
2021/11/02 13:46:04;;;;;;;6.43;3.90;;;12.80;99.90;;;;;;5066876;28;20720;-67
2021/11/02 13:48:34;;;;;;;6.77;4.20;;;12.70;99.90;;;;;;5051873;28;20321;-67
2021/11/02 13:51:05;;;;;;;5.90;3.80;;;12.70;99.90;;;;;;5064141;28;20232;-67
2021/11/02 13:53:34;;;;;;;8.30;4.10;;;12.70;99.90;;;;;;5067052;28;20273;-67
2021/11/02 13:56:04;;;;;;;6.63;3.93;;;12.70;99.90;;;;;;5067217;28;20233;-67
2021/11/02 13:58:34;;;;;;;7.90;3.97;;;12.70;99.90;;;;;;5059778;28;20242;-67
2021/11/02 14:01:03;;;;;;;7.67;4.60;;;12.80;99.90;;;;;;5066462;28;20241;-67
2021/11/02 14:03:36;;;;;;;6.23;4.10;;;12.80;99.90;;;;;;5062695;28;20241;-67
2021/11/02 14:06:10;;;;;;;9.63;4.70;;;12.70;99.90;;;;;;5067005;28;20696;-67
2021/11/02 14:08:40;;;;;;;7.63;4.90;;;12.60;99.90;;;;;;5064850;28;20703;-67
2021/11/02 14:11:21;;;;;;;6.97;4.83;;;12.50;99.90;;;;;;5066442;28;20249;-67
2021/11/02 14:13:50;;;;;;;7.87;5.10;;;12.50;99.90;;;;;;5066317;28;20700;-67
2021/11/02 14:16:29;;;;;;;6.10;5.10;;;12.40;99.90;;;;;;5067094;28;20581;-68
2021/11/02 14:18:58;;;;;;;6.73;5.00;;;12.40;99.90;;;;;;5062469;28;20240;-67
2021/11/02 14:21:50;;;;;;;7.53;5.03;;;12.50;99.90;;;;;;5066493;28;20706;-67
2021/11/02 14:24:30;;;;;;;6.77;5.10;;;12.40;99.90;;;;;;5066331;28;20762;-67
2021/11/02 14:26:59;;;;;;;7.97;5.07;;;12.40;99.90;;;;;;5066103;28;20287;-67
2021/11/02 14:29:54;;;;;;;7.37;5.73;;;12.30;99.90;;;;;;5066404;28;20295;-67
2021/11/02 14:32:47;;;;;;;7.30;5.30;;;12.30;99.90;;;;;;5065788;28;20250;-67
2021/11/02 14:35:49;;;;;;;5.83;5.17;;;12.30;99.90;;;;;;5066187;28;20244;-67
2021/11/02 14:38:22;;;;;;;7.77;5.10;;;12.20;99.90;;;;;;5060777;28;20245;-67
2021/11/02 14:41:31;;;;;;;8.53;4.90;;;12.20;99.90;;;;;;5065129;28;20234;-67
2021/11/02 14:44:24;;;;;;;7.20;5.13;;;12.10;99.90;;;;;;5062763;28;20242;-67
2021/11/02 14:46:53;;;;;;;8.07;5.67;;;12.00;99.90;;;;;;5065878;28;20718;-67
2021/11/02 14:49:40;;;;;;;7.27;4.80;;;12.00;99.90;;;;;;5066013;28;20321;-67
2021/11/02 14:52:10;;;;;;;5.73;4.47;;;12.00;99.90;;;;;;5065480;28;20268;-67
2021/11/02 14:54:45;;;;;;;6.30;5.00;;;12.00;99.90;;;;;;5066471;28;20522;-67
2021/11/02 14:57:51;;;;;;;7.17;5.13;;;11.90;99.90;;;;;;5066342;28;20846;-68
2021/11/02 15:00:41;;;;;;;8.10;5.77;;;11.80;99.90;;;;;;5065824;28;20236;-67
2021/11/02 15:03:18;;;;;;;9.00;6.20;;;11.70;99.90;;;;;;5065600;28;20885;-67
2021/11/02 15:05:46;;;;;;;13.43;6.80;;;11.70;99.90;;;;;;5061280;28;20633;-67
2021/11/02 15:08:15;;;;;;;10.27;7.40;;;11.70;99.90;;;;;;5065833;28;20267;-67
2021/11/02 15:10:48;;;;;;;9.87;7.60;;;11.70;99.90;;;;;;5066033;28;20643;-67
2021/11/02 15:13:24;;;;;;;10.50;7.33;;;11.70;99.90;;;;;;5065970;28;20237;-67
2021/11/02 15:15:55;;;;;;;9.23;7.63;;;11.70;99.90;;;;;;5065510;28;20244;-67
2021/11/02 15:18:25;;;;;;;7.90;7.10;;;11.60;99.90;;;;;;5060890;28;20624;-67
2021/11/02 15:21:02;;;;;;;10.73;7.60;;;11.50;99.90;;;;;;5058752;28;20229;-67
2021/11/02 15:23:40;;;;;;;8.97;6.70;;;11.50;99.90;;;;;;5057537;28;20235;-67
2021/11/02 15:26:32;;;;;;;10.40;7.00;;;11.40;99.90;;;;;;5064844;28;20701;-67
2021/11/02 15:29:00;;;;;;;7.07;6.23;;;11.40;99.90;;;;;;5063418;28;20704;-67
2021/11/02 15:31:28;;;;;;;7.63;6.13;;;11.30;99.90;;;;;;5064794;28;20805;-67
2021/11/02 15:33:56;;;;;;;6.73;6.00;;;11.30;99.90;;;;;;5066246;28;20651;-67
2021/11/02 15:36:29;;;;;;;7.80;6.50;;;11.20;99.90;;;;;;5064489;28;20237;-67
2021/11/02 15:39:00;;;;;;;7.43;6.30;;;11.20;99.90;;;;;;5060559;28;20244;-67
2021/11/02 15:41:31;;;;;;;8.77;5.47;;;11.10;99.90;;;;;;5049613;28;20325;-67
2021/11/02 15:44:03;;;;;;;6.73;5.70;;;11.10;99.90;;;;;;5049356;28;20232;-67
2021/11/02 15:46:39;;;;;;;5.73;5.17;;;11.10;99.90;;;;;;5050810;28;20770;-67
2021/11/02 15:49:09;;;;;;;7.53;5.60;;;11.00;99.90;;;;;;5047949;28;20643;-67
2021/11/02 15:51:39;;;;;;;8.03;5.23;;;11.00;99.90;;;;;;5050243;28;20259;-67
2021/11/02 15:54:09;;;;;;;6.17;5.20;;;10.90;99.90;;;;;;5050019;28;20891;-67
2021/11/02 15:56:40;;;;;;;8.10;5.70;;;10.90;99.90;;;;;;5053186;28;20245;-68
2021/11/02 15:59:10;;;;;;;9.10;5.57;;;10.90;99.90;;;;;;5048810;28;20263;-67
2021/11/02 16:01:43;;;;;;;9.83;5.47;;;10.80;99.90;;;;;;5052139;28;21111;-67
2021/11/02 16:04:17;;;;;;;9.07;6.40;;;10.80;99.90;;;;;;5053556;28;20240;-67
2021/11/02 16:07:00;;;;;;;7.60;6.23;;;10.80;99.90;;;;;;5054189;28;20240;-67
2021/11/02 16:09:45;;;;;;;6.40;5.30;;;10.80;99.90;;;;;;5050895;28;20240;-67
2021/11/02 16:12:22;;;;;;;6.77;5.93;;;10.80;99.90;;;;;;5052778;28;20240;-67
2021/11/02 16:14:52;;;;;;;8.37;6.27;;;10.70;99.90;;;;;;5053014;28;20328;-67
2021/11/02 16:17:21;;;;;;;6.83;5.40;;;10.70;99.90;;;;;;5053911;28;20623;-67
2021/11/02 16:19:50;;;;;;;7.93;6.00;;;10.60;99.90;;;;;;5050966;28;20651;-67
2021/11/02 16:22:19;;;;;;;10.57;6.37;;;10.60;99.90;;;;;;5053304;28;20240;-67
2021/11/02 16:25:01;;;;;;;11.00;7.37;;;10.60;99.90;;;;;;5053273;28;20232;-67
2021/11/02 16:27:31;;;;;;;9.93;6.43;;;10.50;99.90;;;;;;5053167;28;20260;-67
2021/11/02 16:30:00;;;;;;;11.77;7.00;;;10.50;99.90;;;;;;5050403;28;20366;-67
2021/11/02 16:32:30;;;;;;;14.60;10.50;;;10.50;99.90;;;;;;5052533;28;20298;-67
2021/11/02 16:34:58;;;;;;;17.83;10.33;;;10.50;99.90;;;;;;5050441;28;20247;-67
2021/11/02 16:37:35;;;;;;;16.07;11.40;;;10.40;99.90;;;;;;5053270;28;20247;-67
2021/11/02 16:40:25;;;;;;;15.87;10.70;;;10.40;99.90;;;;;;5051717;28;20631;-67
2021/11/02 16:43:00;;;;;;;14.93;10.83;;;10.30;99.90;;;;;;5052975;28;20290;-67
2021/11/02 16:45:33;;;;;;;17.53;12.23;;;10.20;99.90;;;;;;5052811;28;20322;-67
2021/11/02 16:48:05;;;;;;;17.37;13.40;;;10.20;99.90;;;;;;5051685;28;20240;-66
2021/11/02 16:50:35;;;;;;;18.03;14.17;;;10.20;99.90;;;;;;5048767;28;21900;-67
2021/11/02 16:53:12;;;;;;;17.17;14.50;;;10.20;99.90;;;;;;5053155;28;20263;-67
2021/11/02 16:55:41;;;;;;;15.50;12.97;;;10.10;99.90;;;;;;5052348;28;20245;-67
2021/11/02 16:58:32;;;;;;;14.80;12.63;;;10.10;99.90;;;;;;5049736;28;21062;-65
2021/11/02 17:01:13;;;;;;;13.90;12.33;;;10.00;99.90;;;;;;5052873;28;20327;-65
2021/11/02 17:03:42;;;;;;;12.93;11.63;;;10.00;99.90;;;;;;5053249;28;20611;-64
2021/11/02 17:06:12;;;;;;;12.10;10.83;;;9.90;99.90;;;;;;5050909;28;20447;-64
2021/11/02 17:08:50;;;;;;;11.63;10.27;;;9.90;99.90;;;;;;5048628;28;20270;-64
2021/11/02 17:11:25;;;;;;;10.60;9.50;;;9.90;99.90;;;;;;5067974;28;20235;-64
2021/11/02 17:13:55;;;;;;;12.90;10.97;;;9.80;99.90;;;;;;5052053;28;20235;-65
2021/11/02 17:16:27;;;;;;;11.07;9.90;;;9.80;99.90;;;;;;5052892;28;20359;-64
2021/11/02 17:19:04;;;;;;;13.37;10.27;;;9.80;99.90;;;;;;5048855;28;20264;-64
2021/11/02 17:21:33;;;;;;;14.40;10.80;;;9.80;99.90;;;;;;5052429;28;20669;-65
2021/11/02 17:24:03;;;;;;;13.63;11.30;;;9.80;99.90;;;;;;5052695;28;20239;-64
2021/11/02 17:26:33;;;;;;;15.47;11.70;;;9.80;99.90;;;;;;5051335;28;20824;-64
2021/11/02 17:29:04;;;;;;;14.17;11.83;;;9.70;99.90;;;;;;5048092;28;20255;-64
2021/11/02 17:31:38;;;;;;;15.40;12.00;;;9.70;99.90;;;;;;5051961;28;20235;-65
2021/11/02 17:34:07;;;;;;;21.37;19.07;;;9.60;99.90;;;;;;5052249;28;20292;-65
2021/11/02 17:36:36;;;;;;;23.83;18.73;;;9.60;99.90;;;;;;5052345;28;20332;-64
2021/11/02 17:39:06;;;;;;;21.37;18.97;;;9.60;99.90;;;;;;5049132;28;20231;-64
2021/11/02 17:41:35;;;;;;;25.50;19.03;;;9.60;99.90;;;;;;5051689;28;20237;-64
2021/11/02 17:44:05;;;;;;;23.40;20.43;;;9.50;99.90;;;;;;5051683;28;20239;-65
2021/11/02 17:46:33;;;;;;;21.73;18.93;;;9.50;99.90;;;;;;5051611;28;20246;-65